This is the latest recevied weather packets stored in our database for station/object KD9JB-1. If no packets are shown the sender has not sent any weather packets the latest 10 day(s).
| Time | Temp. | Humidity | Pressure | Rain* | Wind** | Luminosity | Snow |
|---|---|---|---|---|---|---|---|
| 1778027495 | 10.56° C | 93% | 1007.4 hPa | 2.03 mm | - | - | - |
| 1778027195 | 10.56° C | 93% | 1007.2 hPa | 2.29 mm | - | - | - |
| 1778026895 | 10.56° C | 93% | 1007.2 hPa | 2.29 mm | - | - | - |
| 1778026595 | 10.56° C | 93% | 1007.2 hPa | 2.29 mm | - | - | - |
| 1778026295 | 10.56° C | 93% | 1006.9 hPa | 2.03 mm | - | - | - |
| 1778025995 | 10.56° C | 93% | 1007.8 hPa | 1.02 mm | - | - | - |
| 1778025695 | 10.56° C | 93% | 1007.7 hPa | 1.02 mm | - | - | - |
| 1778025395 | 10.56° C | 93% | 1007.6 hPa | 1.27 mm | - | - | - |
| 1778025095 | 10.56° C | 93% | 1007.4 hPa | 1.02 mm | - | - | - |
| 1778024795 | 10.56° C | 93% | 1007.7 hPa | 0.76 mm | - | - | - |
| 1778024495 | 10.56° C | 93% | 1007.6 hPa | 0.76 mm | - | - | - |
| 1778024195 | 11.11° C | 92% | 1007.7 hPa | 0.51 mm | - | - | - |
| 1778023895 | 11.11° C | 92% | 1007.4 hPa | 0.51 mm | - | - | - |
| 1778023595 | 11.11° C | 92% | 1007.5 hPa | 0.25 mm | - | - | - |
| 1778023295 | 11.11° C | 92% | 1007.5 hPa | 0.51 mm | - | - | - |
| 1778022995 | 11.11° C | 92% | 1007.5 hPa | 0.51 mm | - | - | - |
| 1778022695 | 11.11° C | 92% | 1007.6 hPa | 0.51 mm | - | - | - |
| 1778022395 | 11.11° C | 92% | 1007.8 hPa | 0.51 mm | - | - | - |
| 1778022095 | 11.11° C | 92% | 1007.7 hPa | 0.76 mm | - | - | - |
| 1778021795 | 11.11° C | 92% | 1007.7 hPa | 0.76 mm | - | - | - |
| 1778021495 | 11.11° C | 91% | 1007.7 hPa | 1.02 mm | - | - | - |
| 1778021195 | 11.67° C | 92% | 1007.9 hPa | 1.27 mm | - | - | - |
| 1778020895 | 11.67° C | 92% | 1007.8 hPa | 1.52 mm | - | - | - |
| 1778020595 | 11.67° C | 92% | 1007.8 hPa | 2.03 mm | - | - | - |
| 1778020295 | 12.22° C | 91% | 1007.7 hPa | 2.79 mm | - | - | - |
* Rain latest hour (hover to see other rain measurements)
** Current wind speed in m/s (hover to see current wind gust speed)